Für Piloten

Informationen für Piloten zum Flugplatz Borken-Hoxfeld
Hier findest Du alle relevanten Informationen, die Du als Pilot benötigst, um Borken-Hoxfeld anzufliegen.

Flugplatz: Borken-Hoxfeld ICAO-Code: EDLY
Borken-Hoxfeld Info: 122,925 Mhz
GAFOR Gebiet: 32
Platzrunde: Motorflug; -> Südplatzrunde; Segelflug; -> Nordplatzrunde;
Landegebühr: z.Zt. 5,00 Euro
Platzhöhe: 48m üMSL
Pisten: 12/30 – 740 m x 30 m, GRAS
Betriebszeiten: PPR (in den Sommermonaten Mittagspause beachten)

 

Wetterforecast:

Available data for EDDL from the past 2 hours
DUESSELDORF
Metar
EDDL 240020Z 26015KT 9999 FEW006 BKN016 14/11 Q1021 TEMPO BKN012

00:20 UTC

Wind: 260° 15kt

Visibility: 9999 m

Sky: FEW 600 ft

Temp: 14 deg C / 57.2 deg F

Dewpoint: 11 deg C / 51.8 deg F

Pressure: 1021 hPa

TAF
TAF EDDL 232300Z 2400/2506 27012KT 9999 BKN020 BECMG 2400/2403 BKN012 TEMPO 2401/2407 3500 -DZ BKN008 PROB30 TEMPO 2401/2409 29015G25KT BECMG 2409/2412 BKN025 BECMG 2416/2419 27007KT BECMG 2422/2424 BKN010

Alle obigen Informationen ersetzen nicht die vorgeschriebene, persönliche Flugvorbereitung.